Time;durP1;ratioP1;P1;durP2;ratioP2;P2;SDS_P1;SDS_P2;PMS_P1;PMS_P2;Temp;Humidity;BMP_temperature;BMP_pressure;BME280_temperature;BME280_humidity;BME280_pressure;Samples;Min_cycle;Max_cycle;Signal;HPM_P1;HPM_P2
2023/03/09 00:01:25;;;;;;;100.70;42.90;;;;;;;0.38;94.08;98727.42;111383;1206;140382;-59
2023/03/09 00:03:51;;;;;;;115.60;47.40;;;;;;;0.36;93.90;98727.48;111176;1208;99045;-61
2023/03/09 00:06:17;;;;;;;96.40;36.80;;;;;;;0.35;94.09;98722.05;111063;1206;139036;-61
2023/03/09 00:08:42;;;;;;;81.70;33.10;;;;;;;0.35;94.07;98725.92;111256;1209;99193;-60
2023/03/09 00:11:08;;;;;;;76.20;30.20;;;;;;;0.35;94.15;98722.59;111166;1208;98996;-61
2023/03/09 00:13:34;;;;;;;86.60;32.40;;;;;;;0.34;94.20;98721.39;111015;1207;139037;-59
2023/03/09 00:16:14;;;;;;;70.80;27.80;;;;;;;0.33;94.27;98727.56;111206;1209;99066;-60
2023/03/09 00:18:40;;;;;;;69.10;26.70;;;;;;;0.32;94.14;98729.86;110964;1221;140112;-60
2023/03/09 00:21:06;;;;;;;75.40;29.20;;;;;;;0.30;94.27;98724.33;111359;1206;100415;-61
2023/03/09 00:23:32;;;;;;;75.00;29.10;;;;;;;0.29;94.29;98721.38;111268;1209;98945;-60
2023/03/09 00:26:03;;;;;;;66.00;25.20;;;;;;;0.28;94.41;98716.13;111154;1208;140073;-59
2023/03/09 00:28:28;;;;;;;;;;;;;;;0.26;94.42;98711.47;111271;1206;106346;-60
2023/03/09 00:30:53;;;;;;;61.40;24.00;;;;;;;0.21;94.33;98710.39;111014;1208;125521;-60
2023/03/09 00:33:18;;;;;;;65.50;26.00;;;;;;;0.18;94.44;98707.53;111282;1204;98918;-60
2023/03/09 00:35:44;;;;;;;69.20;24.00;;;;;;;0.17;94.55;98701.41;111175;1206;99034;-60
2023/03/09 00:38:09;;;;;;;57.80;24.60;;;;;;;0.16;94.53;98693.54;111157;1206;140453;-61
2023/03/09 00:40:36;;;;;;;60.10;23.60;;;;;;;0.12;94.69;98695.23;111252;1208;99047;-59
2023/03/09 00:43:01;;;;;;;55.00;21.50;;;;;;;0.11;94.61;98703.34;110937;1209;139594;-59
2023/03/09 00:45:26;;;;;;;68.80;25.70;;;;;;;0.11;94.68;98701.08;111145;1206;99015;-60
2023/03/09 00:47:52;;;;;;;50.20;19.80;;;;;;;0.13;94.70;98701.19;111048;1212;99028;-60
2023/03/09 00:50:17;;;;;;;61.60;22.90;;;;;;;0.14;94.65;98697.83;111146;1206;139077;-59
2023/03/09 00:52:42;;;;;;;57.80;22.80;;;;;;;0.14;94.72;98702.55;111253;1206;100046;-59
2023/03/09 00:55:08;;;;;;;58.20;23.60;;;;;;;0.16;94.76;98708.30;111085;1209;140929;-60
2023/03/09 00:57:34;;;;;;;56.50;22.60;;;;;;;0.18;94.81;98714.37;111297;1208;98950;-59
2023/03/09 01:00:00;;;;;;;66.10;24.10;;;;;;;0.18;94.78;98712.60;111029;1208;139845;-61
2023/03/09 01:02:27;;;;;;;61.00;22.40;;;;;;;0.18;94.83;98707.52;111256;1206;99240;-60
2023/03/09 01:04:52;;;;;;;56.50;21.60;;;;;;;0.19;94.85;98697.11;111142;1209;99034;-60
2023/03/09 01:07:18;;;;;;;69.10;25.70;;;;;;;0.20;94.74;98695.50;111148;1208;139162;-60
2023/03/09 01:09:44;;;;;;;67.20;24.80;;;;;;;0.20;94.75;98683.89;111157;1208;98966;-60
2023/03/09 01:12:09;;;;;;;68.00;22.80;;;;;;;0.21;94.85;98674.56;111064;1215;140603;-60
2023/03/09 01:14:35;;;;;;;71.00;27.00;;;;;;;0.21;94.69;98668.95;111237;1208;99069;-60
2023/03/09 01:17:01;;;;;;;68.90;27.00;;;;;;;0.22;94.82;98665.04;111191;1206;100281;-60
2023/03/09 01:19:27;;;;;;;67.50;25.50;;;;;;;0.24;94.83;98667.09;111060;1209;139897;-60
2023/03/09 01:21:53;;;;;;;63.90;22.60;;;;;;;0.24;94.83;98666.21;111249;1208;99111;-60
2023/03/09 01:24:18;;;;;;;69.90;25.10;;;;;;;0.25;94.93;98664.24;111037;1208;139224;-60
2023/03/09 01:26:44;;;;;;;74.10;26.00;;;;;;;0.28;94.79;98662.23;111172;1208;99031;-60
2023/03/09 01:29:09;;;;;;;80.90;27.80;;;;;;;0.29;94.89;98653.58;111265;1209;97846;-60
2023/03/09 01:31:35;;;;;;;80.80;26.60;;;;;;;0.30;94.90;98651.42;111009;1206;140346;-60
2023/03/09 01:34:00;;;;;;;68.50;23.00;;;;;;;0.29;94.82;98654.98;111056;1206;98307;-60
2023/03/09 01:36:26;;;;;;;77.60;27.20;;;;;;;0.29;94.93;98659.55;110980;1209;140520;-59
2023/03/09 01:38:51;;;;;;;83.80;28.10;;;;;;;0.29;94.91;98658.48;111122;1208;99153;-61
2023/03/09 01:41:18;;;;;;;78.10;28.20;;;;;;;0.30;94.90;98661.25;111127;1205;98891;-61
2023/03/09 01:43:46;;;;;;;76.90;26.10;;;;;;;0.31;94.96;98660.02;110863;1206;140283;-60
2023/03/09 01:46:17;;;;;;;76.90;26.20;;;;;;;0.30;94.92;98656.16;111038;1206;113078;-58
2023/03/09 01:48:42;;;;;;;;;;;;;;;0.31;95.00;98654.02;110980;1208;140685;-57
2023/03/09 01:51:08;;;;;;;79.90;27.20;;;;;;;0.30;94.99;98657.23;111181;1206;97922;-59
2023/03/09 01:53:33;;;;;;;82.00;29.10;;;;;;;0.27;95.05;98652.74;111124;1209;99021;-58
2023/03/09 01:56:01;;;;;;;76.70;26.90;;;;;;;0.27;94.98;98656.46;110865;1206;139842;-58
2023/03/09 01:58:29;;;;;;;78.10;28.00;;;;;;;0.26;94.89;98657.02;110952;1222;100512;-58
2023/03/09 02:00:56;;;;;;;72.80;26.80;;;;;;;0.25;95.01;98648.77;110799;1209;140524;-58
2023/03/09 02:03:35;;;;;;;68.80;24.00;;;;;;;0.24;95.05;98642.50;111143;1208;98922;-58
2023/03/09 02:06:13;;;;;;;73.80;25.40;;;;;;;0.21;95.02;98646.63;110987;1206;139425;-58
2023/03/09 02:08:48;;;;;;;59.10;21.30;;;;;;;0.18;94.97;98658.67;111103;1224;112815;-59
2023/03/09 02:11:13;;;;;;;66.60;24.00;;;;;;;0.17;95.02;98662.23;111219;1222;100112;-59
2023/03/09 02:13:48;;;;;;;68.20;23.60;;;;;;;0.16;95.17;98668.94;110970;1205;140827;-59
2023/03/09 02:16:13;;;;;;;69.50;24.50;;;;;;;0.15;95.12;98680.92;111075;1209;98925;-59
2023/03/09 02:18:39;;;;;;;68.20;24.50;;;;;;;0.17;95.32;98678.75;111026;1209;140176;-59
2023/03/09 02:21:23;;;;;;;68.80;25.10;;;;;;;0.18;95.27;98680.83;111182;1206;98999;-59
2023/03/09 02:24:06;;;;;;;74.10;26.80;;;;;;;0.20;95.25;98677.92;111087;1209;106942;-59
2023/03/09 02:26:49;;;;;;;64.10;23.10;;;;;;;0.21;95.34;98669.11;111136;1206;99078;-59
2023/03/09 02:29:15;;;;;;;72.50;25.40;;;;;;;0.22;95.21;98676.98;111111;1205;99028;-59
2023/03/09 02:31:40;;;;;;;84.90;29.40;;;;;;;0.23;95.22;98677.48;111009;1209;140801;-60
2023/03/09 02:34:07;;;;;;;87.90;30.20;;;;;;;0.24;95.14;98677.29;111175;1207;99293;-60
2023/03/09 02:36:33;;;;;;;78.30;27.30;;;;;;;0.26;95.24;98674.39;111094;1208;140191;-60
2023/03/09 02:39:06;;;;;;;81.10;28.20;;;;;;;0.26;95.25;98672.98;111154;1205;98889;-60
2023/03/09 02:41:31;;;;;;;77.50;29.60;;;;;;;0.26;95.31;98669.31;111110;1205;113055;-60
2023/03/09 02:43:58;;;;;;;74.60;27.20;;;;;;;0.24;95.32;98669.54;110986;1208;138825;-59
2023/03/09 02:46:24;;;;;;;81.10;30.00;;;;;;;0.23;95.22;98671.17;111260;1208;99105;-59
2023/03/09 02:48:49;;;;;;;79.80;28.70;;;;;;;0.23;95.31;98678.19;111096;1208;138527;-60
2023/03/09 02:51:15;;;;;;;81.90;31.30;;;;;;;0.24;95.33;98680.25;111095;1205;98941;-59
2023/03/09 02:53:40;;;;;;;88.30;32.10;;;;;;;0.25;95.41;98682.67;111101;1208;99047;-60
2023/03/09 02:56:06;;;;;;;80.60;29.40;;;;;;;0.27;95.39;98683.86;111031;1206;138686;-60
2023/03/09 02:58:32;;;;;;;94.10;34.20;;;;;;;0.28;95.41;98688.02;111158;1205;98248;-59
2023/03/09 03:00:58;;;;;;;83.20;33.00;;;;;;;0.30;95.36;98683.58;111087;1209;141084;-59
2023/03/09 03:03:23;;;;;;;91.30;33.90;;;;;;;0.29;95.26;98676.75;111118;1209;107739;-59
2023/03/09 03:05:49;;;;;;;87.50;31.60;;;;;;;0.30;95.35;98683.04;111099;1209;99043;-59
2023/03/09 03:08:15;;;;;;;94.30;35.10;;;;;;;0.31;95.30;98684.95;111174;1208;139665;-59
2023/03/09 03:10:40;;;;;;;90.40;31.00;;;;;;;0.30;95.32;98678.29;111139;1206;99046;-59
2023/03/09 03:13:05;;;;;;;107.50;34.60;;;;;;;0.31;95.35;98673.36;111009;1208;140182;-59
2023/03/09 03:15:31;;;;;;;101.90;33.00;;;;;;;0.31;95.29;98677.02;111209;1206;98963;-59
2023/03/09 03:17:56;;;;;;;97.00;34.90;;;;;;;0.32;95.32;98679.64;111150;1205;99034;-59
2023/03/09 03:20:21;;;;;;;100.50;34.20;;;;;;;0.34;95.45;98678.54;111158;1209;139725;-59
2023/03/09 03:22:47;;;;;;;102.60;36.40;;;;;;;0.33;95.31;98679.79;111128;1206;98998;-59
2023/03/09 03:25:13;;;;;;;93.60;34.90;;;;;;;0.33;95.34;98676.98;111062;1208;139474;-59
2023/03/09 03:27:39;;;;;;;104.70;37.40;;;;;;;0.33;95.39;98678.37;111199;1216;98979;-59
2023/03/09 03:30:05;;;;;;;111.60;41.60;;;;;;;0.35;95.31;98675.88;110976;1208;140741;-60
2023/03/09 03:32:30;;;;;;;102.10;37.30;;;;;;;0.33;95.42;98679.07;111290;1208;98889;-59
2023/03/09 03:34:55;;;;;;;109.70;36.70;;;;;;;0.32;95.30;98673.30;111196;1208;99118;-59
2023/03/09 03:37:21;;;;;;;101.80;36.00;;;;;;;0.32;95.35;98667.87;111055;1208;139548;-59
2023/03/09 03:39:47;;;;;;;87.90;33.80;;;;;;;0.31;95.30;98663.52;111101;1209;98993;-59
2023/03/09 03:42:13;;;;;;;94.90;34.70;;;;;;;0.29;95.28;98664.11;111113;1208;140325;-59
2023/03/09 03:44:38;;;;;;;95.70;36.10;;;;;;;0.30;95.38;98663.74;111066;1205;99611;-60
2023/03/09 03:47:04;;;;;;;95.40;35.10;;;;;;;0.30;95.40;98657.41;111166;1208;99117;-59
2023/03/09 03:49:29;;;;;;;98.50;38.60;;;;;;;0.30;95.40;98658.27;111118;1204;139722;-59
2023/03/09 03:51:54;;;;;;;91.30;33.30;;;;;;;0.32;95.43;98660.49;111146;1225;99015;-59
2023/03/09 03:54:20;;;;;;;98.00;36.80;;;;;;;0.32;95.46;98660.33;111065;1208;138908;-60
2023/03/09 03:56:45;;;;;;;83.10;32.60;;;;;;;0.31;95.44;98661.06;110902;1206;100448;-59
2023/03/09 03:59:10;;;;;;;94.60;35.20;;;;;;;0.29;95.37;98659.19;111022;1221;98920;-60
2023/03/09 04:01:36;;;;;;;83.90;32.70;;;;;;;0.27;95.44;98658.02;110943;1209;139871;-59
2023/03/09 04:04:02;;;;;;;82.20;32.30;;;;;;;0.25;95.41;98660.74;111101;1205;99385;-59
2023/03/09 04:06:27;;;;;;;96.30;34.50;;;;;;;0.25;95.32;98665.84;111104;1208;138701;-59
2023/03/09 04:08:52;;;;;;;83.70;32.40;;;;;;;0.27;95.44;98668.05;111161;1209;98941;-59
2023/03/09 04:11:18;;;;;;;83.40;32.90;;;;;;;0.29;95.41;98665.70;111276;1208;98937;-59
2023/03/09 04:13:48;;;;;;;71.70;28.90;;;;;;;0.31;95.57;98666.52;110961;1206;139091;-59
2023/03/09 04:16:13;;;;;;;74.40;30.70;;;;;;;0.30;95.48;98668.63;111157;1206;99037;-59
2023/03/09 04:18:39;;;;;;;72.30;28.80;;;;;;;0.31;95.41;98665.64;111024;1216;138727;-59
2023/03/09 04:21:04;;;;;;;68.20;28.80;;;;;;;0.30;95.40;98666.52;111272;1207;99033;-59
2023/03/09 04:23:29;;;;;;;72.40;29.20;;;;;;;0.29;95.52;98666.39;111108;1208;99047;-59
2023/03/09 04:26:00;;;;;;;54.20;23.80;;;;;;;0.26;95.41;98662.98;111038;1206;138465;-59
2023/03/09 04:28:27;;;;;;;60.30;24.40;;;;;;;0.25;95.45;98660.89;111179;1212;111551;-59
2023/03/09 04:30:53;;;;;;;61.00;24.00;;;;;;;0.24;95.45;98658.30;111033;1209;138858;-59
2023/03/09 04:33:19;;;;;;;57.10;23.30;;;;;;;0.22;95.37;98658.73;111304;1206;98945;-60
2023/03/09 04:35:44;;;;;;;56.50;23.60;;;;;;;0.20;95.43;98659.31;111137;1206;99187;-59
2023/03/09 04:38:10;;;;;;;51.70;21.60;;;;;;;0.19;95.42;98657.58;110903;1208;139665;-59
2023/03/09 04:40:36;;;;;;;51.30;21.20;;;;;;;0.19;95.43;98652.52;111025;1206;99047;-59
2023/03/09 04:43:02;;;;;;;46.80;21.70;;;;;;;0.15;95.42;98649.13;111094;1206;139025;-59
2023/03/09 04:45:27;;;;;;;50.30;21.20;;;;;;;0.12;95.32;98649.75;111287;1205;99863;-59
2023/03/09 04:47:53;;;;;;;61.10;23.20;;;;;;;0.11;95.30;98651.02;111173;1206;98992;-59
2023/03/09 04:50:18;;;;;;;50.20;22.40;;;;;;;0.09;95.42;98652.52;110947;1206;139909;-59
2023/03/09 04:52:44;;;;;;;62.40;24.10;;;;;;;0.06;95.32;98654.52;110980;1206;98936;-59
2023/03/09 04:55:09;;;;;;;53.20;21.30;;;;;;;0.05;95.40;98652.43;111041;1209;139180;-60
2023/03/09 04:57:34;;;;;;;51.00;21.20;;;;;;;0.04;95.38;98652.30;111117;1208;100495;-59
2023/03/09 05:00:00;;;;;;;47.30;19.30;;;;;;;0.03;95.37;98649.34;111106;1209;98929;-60
2023/03/09 05:02:28;;;;;;;47.80;21.90;;;;;;;0.02;95.36;98647.81;111153;1208;138806;-59
2023/03/09 05:04:54;;;;;;;53.20;21.90;;;;;;;-0.04;95.34;98649.60;111124;1206;112915;-60
2023/03/09 05:07:19;;;;;;;50.90;21.00;;;;;;;-0.05;95.36;98653.84;110975;1208;139409;-59
2023/03/09 05:09:45;;;;;;;44.80;20.00;;;;;;;-0.06;95.44;98649.85;111177;1205;99034;-59
2023/03/09 05:12:10;;;;;;;53.70;22.10;;;;;;;-0.09;95.32;98651.00;111132;1206;139644;-59
2023/03/09 05:14:36;;;;;;;47.10;19.00;;;;;;;-0.08;95.28;98646.42;111171;1206;102764;-60
2023/03/09 05:17:01;;;;;;;47.00;20.40;;;;;;;-0.11;95.29;98649.83;111143;1204;99182;-60
2023/03/09 05:19:26;;;;;;;51.80;20.00;;;;;;;-0.14;95.27;98653.08;111013;1206;140351;-60
2023/03/09 05:21:51;;;;;;;46.40;21.10;;;;;;;-0.16;95.29;98651.23;111154;1208;99002;-60
2023/03/09 05:24:17;;;;;;;48.10;20.90;;;;;;;-0.17;95.21;98652.33;110985;1208;139384;-60
2023/03/09 05:26:42;;;;;;;45.80;19.80;;;;;;;-0.16;95.40;98657.21;111137;1206;99203;-60
2023/03/09 05:29:07;;;;;;;45.70;21.30;;;;;;;-0.16;95.38;98654.55;111075;1206;99521;-60
2023/03/09 05:31:33;;;;;;;42.00;18.80;;;;;;;-0.15;95.38;98655.44;110981;1206;139430;-60
2023/03/09 05:33:58;;;;;;;44.00;20.10;;;;;;;-0.16;95.36;98657.73;111113;1208;99126;-60
2023/03/09 05:36:25;;;;;;;54.10;23.50;;;;;;;-0.17;95.42;98662.51;111003;1206;141099;-60
2023/03/09 05:38:51;;;;;;;49.10;21.00;;;;;;;-0.16;95.46;98667.89;111120;1208;99019;-60
2023/03/09 05:41:18;;;;;;;52.60;22.00;;;;;;;-0.14;95.47;98665.20;111288;1205;98620;-60
2023/03/09 05:43:43;;;;;;;51.00;23.50;;;;;;;-0.12;95.52;98661.45;110923;1206;139256;-60
2023/03/09 05:46:11;;;;;;;41.30;19.20;;;;;;;-0.11;95.45;98662.48;111096;1205;97786;-60
2023/03/09 05:48:37;;;;;;;47.20;21.50;;;;;;;-0.10;95.37;98659.66;111027;1209;139380;-60
2023/03/09 05:51:04;;;;;;;47.90;20.40;;;;;;;-0.11;95.47;98659.31;111253;1206;99441;-60
2023/03/09 05:53:30;;;;;;;46.20;20.40;;;;;;;-0.13;95.30;98659.40;111133;1209;108007;-60
2023/03/09 05:55:57;;;;;;;44.20;18.10;;;;;;;-0.14;95.37;98656.79;110988;1208;139458;-60
2023/03/09 05:58:23;;;;;;;42.30;19.80;;;;;;;-0.13;95.36;98659.90;111106;1208;98950;-60
2023/03/09 06:00:48;;;;;;;40.30;19.00;;;;;;;-0.12;95.44;98656.89;111070;1208;140180;-61
2023/03/09 06:03:14;;;;;;;39.40;18.80;;;;;;;-0.12;95.49;98656.89;111079;1208;99107;-61
2023/03/09 06:05:39;;;;;;;47.80;18.90;;;;;;;-0.12;95.36;98657.96;111125;1206;99091;-60
2023/03/09 06:08:04;;;;;;;43.00;18.70;;;;;;;-0.10;95.55;98663.32;111089;1208;139212;-59
2023/03/09 06:10:29;;;;;;;41.40;17.90;;;;;;;-0.08;95.49;98666.06;111157;1205;99904;-59
2023/03/09 06:12:55;;;;;;;40.80;17.50;;;;;;;-0.05;95.57;98662.30;110949;1206;138807;-59
2023/03/09 06:15:20;;;;;;;40.80;18.30;;;;;;;-0.04;95.56;98660.67;111083;1208;98963;-59
2023/03/09 06:17:46;;;;;;;39.50;19.30;;;;;;;-0.02;95.64;98657.79;111081;1206;98925;-59
2023/03/09 06:20:12;;;;;;;40.80;17.20;;;;;;;-0.02;95.41;98655.34;111083;1208;140427;-60
2023/03/09 06:22:40;;;;;;;39.90;18.50;;;;;;;-0.01;95.46;98657.59;111145;1206;99321;-59
2023/03/09 06:25:07;;;;;;;34.60;16.80;;;;;;;0.01;95.53;98657.31;111098;1208;139331;-59
2023/03/09 06:27:35;;;;;;;45.40;18.80;;;;;;;0.03;95.58;98655.88;111248;1208;98929;-59
2023/03/09 06:30:01;;;;;;;38.00;17.20;;;;;;;0.03;95.61;98657.24;110902;1221;139300;-60
2023/03/09 06:32:26;;;;;;;36.80;16.00;;;;;;;0.07;95.73;98652.56;111310;1208;98989;-60
2023/03/09 06:34:51;;;;;;;33.20;17.00;;;;;;;0.08;95.71;98649.89;111131;1222;98894;-59
2023/03/09 06:37:16;;;;;;;40.20;17.80;;;;;;;0.10;95.55;98653.88;110899;1209;139235;-60
2023/03/09 06:39:42;;;;;;;37.30;17.10;;;;;;;0.12;95.72;98649.39;111073;1205;99000;-59
2023/03/09 06:42:07;;;;;;;33.20;16.10;;;;;;;0.13;95.78;98645.86;110899;1212;144743;-60
2023/03/09 06:44:32;;;;;;;39.10;18.50;;;;;;;0.13;95.63;98649.36;111054;1208;99063;-60
2023/03/09 06:46:57;;;;;;;35.30;17.50;;;;;;;0.15;95.63;98653.71;111023;1206;99610;-61
2023/03/09 06:49:23;;;;;;;29.20;15.30;;;;;;;0.15;95.61;98655.63;110837;1209;140658;-60
2023/03/09 06:51:48;;;;;;;35.10;15.30;;;;;;;0.16;95.65;98651.20;111047;1209;98998;-60
2023/03/09 06:54:15;;;;;;;29.80;14.40;;;;;;;0.19;95.69;98647.93;110954;1208;140770;-59
2023/03/09 06:56:40;;;;;;;30.00;13.90;;;;;;;0.21;95.56;98650.70;110899;1209;99393;-60
2023/03/09 06:59:06;;;;;;;35.20;15.40;;;;;;;0.22;95.64;98663.83;111019;1210;99111;-60
2023/03/09 07:01:31;;;;;;;29.00;15.20;;;;;;;0.21;95.71;98667.01;110976;1208;139586;-59
2023/03/09 07:03:57;;;;;;;32.80;14.70;;;;;;;0.24;95.75;98671.66;111113;1209;99092;-60
2023/03/09 07:06:22;;;;;;;29.20;13.60;;;;;;;0.26;95.75;98670.52;111033;1208;139355;-60
2023/03/09 07:08:47;;;;;;;27.00;12.40;;;;;;;0.28;95.67;98675.73;111020;1209;99327;-61
2023/03/09 07:11:12;;;;;;;27.40;13.60;;;;;;;0.28;95.67;98682.93;111113;1208;99018;-60
2023/03/09 07:13:38;;;;;;;30.80;14.90;;;;;;;0.28;95.62;98693.48;110951;1204;140584;-59
2023/03/09 07:16:04;;;;;;;35.00;14.90;;;;;;;0.28;95.66;98689.80;110871;1218;98918;-60
2023/03/09 07:18:30;;;;;;;29.70;14.30;;;;;;;0.30;95.72;98688.49;111097;1209;138919;-60
2023/03/09 07:21:01;;;;;;;28.00;13.70;;;;;;;0.31;95.68;98696.90;110976;1209;112897;-60
2023/03/09 07:23:29;;;;;;;31.70;14.40;;;;;;;0.33;95.62;98691.21;111349;1206;100487;-60
2023/03/09 07:25:58;;;;;;;30.50;14.40;;;;;;;0.35;95.68;98692.90;111067;1209;139212;-62
2023/03/09 07:28:24;;;;;;;29.90;15.10;;;;;;;0.35;95.76;98692.20;111143;1206;99079;-62
2023/03/09 07:30:50;;;;;;;27.10;14.40;;;;;;;0.40;95.77;98700.65;111031;1208;139646;-62
2023/03/09 07:33:15;;;;;;;29.50;14.90;;;;;;;0.44;95.83;98701.38;111247;1208;99833;-62
2023/03/09 07:35:41;;;;;;;30.20;15.30;;;;;;;0.48;95.78;98706.35;111107;1206;99053;-62
2023/03/09 07:38:06;;;;;;;30.30;14.20;;;;;;;0.49;95.68;98711.41;111068;1212;139542;-62
2023/03/09 07:40:31;;;;;;;30.10;13.80;;;;;;;0.51;95.66;98716.97;111274;1209;98993;-63
2023/03/09 07:42:57;;;;;;;31.50;15.10;;;;;;;0.50;95.60;98722.80;110980;1208;138485;-63
2023/03/09 07:45:22;;;;;;;32.70;15.90;;;;;;;0.48;95.64;98730.95;111174;1206;99089;-62
2023/03/09 07:47:49;;;;;;;28.70;14.40;;;;;;;0.49;95.63;98730.91;111174;1205;99870;-62
2023/03/09 07:50:15;;;;;;;28.00;14.70;;;;;;;0.52;95.61;98735.57;111037;1206;139509;-62
2023/03/09 07:52:41;;;;;;;36.40;15.30;;;;;;;0.54;95.77;98734.95;111204;1208;98992;-64
2023/03/09 07:55:11;;;;;;;38.70;14.70;;;;;;;0.60;95.70;98741.96;111043;1208;139112;-62
2023/03/09 07:57:38;;;;;;;33.30;16.50;;;;;;;0.61;95.61;98746.34;111288;1208;99383;-63
2023/03/09 08:00:12;;;;;;;32.10;15.70;;;;;;;0.64;95.58;98740.95;111043;1206;139227;-62
2023/03/09 08:02:40;;;;;;;35.90;16.70;;;;;;;0.64;95.68;98741.98;111205;1206;99982;-62
2023/03/09 08:05:10;;;;;;;33.70;16.00;;;;;;;0.66;95.60;98748.46;111176;1208;106471;-62
2023/03/09 08:07:35;;;;;;;31.40;16.60;;;;;;;0.69;95.60;98752.03;111088;1206;139267;-62
2023/03/09 08:10:02;;;;;;;32.40;16.60;;;;;;;0.74;95.72;98757.84;111037;1208;99031;-62
2023/03/09 08:12:27;;;;;;;32.90;16.30;;;;;;;0.75;95.51;98754.11;111076;1206;139209;-63
2023/03/09 08:14:52;;;;;;;35.40;16.90;;;;;;;0.78;95.78;98755.77;110975;1206;108005;-62
2023/03/09 08:17:18;;;;;;;32.90;17.60;;;;;;;0.82;95.75;98755.98;111103;1217;99026;-63
2023/03/09 08:19:44;;;;;;;40.20;17.80;;;;;;;0.82;95.47;98756.15;110831;1206;139964;-62
2023/03/09 08:22:09;;;;;;;31.10;16.80;;;;;;;0.82;95.59;98763.02;111245;1209;98929;-62
2023/03/09 08:24:34;;;;;;;41.50;18.70;;;;;;;0.83;95.42;98765.96;110868;1209;140188;-63
2023/03/09 08:27:00;;;;;;;39.80;17.90;;;;;;;0.85;95.60;98769.41;111103;1206;99600;-62
2023/03/09 08:29:26;;;;;;;32.10;17.60;;;;;;;0.87;95.58;98773.73;111239;1208;98553;-62
2023/03/09 08:31:51;;;;;;;32.90;17.90;;;;;;;0.85;95.36;98776.79;110933;1208;139376;-61
2023/03/09 08:34:18;;;;;;;32.90;15.70;;;;;;;0.84;95.26;98777.88;111119;1208;98926;-61
2023/03/09 08:36:45;;;;;;;36.60;17.60;;;;;;;0.83;95.38;98780.22;111026;1208;140792;-62
2023/03/09 08:39:10;;;;;;;35.40;18.00;;;;;;;0.84;95.43;98781.41;111168;1206;98922;-62
2023/03/09 08:41:35;;;;;;;32.40;16.00;;;;;;;0.83;95.27;98786.87;111155;1208;99116;-62
2023/03/09 08:44:01;;;;;;;30.90;16.40;;;;;;;0.80;95.42;98792.09;110941;1208;139876;-62
2023/03/09 08:46:26;;;;;;;37.20;18.00;;;;;;;0.79;95.30;98798.29;111092;1207;98933;-62
2023/03/09 08:48:52;;;;;;;37.50;17.50;;;;;;;0.81;95.43;98798.73;110985;1220;139096;-62
2023/03/09 08:51:18;;;;;;;35.00;17.90;;;;;;;0.80;95.33;98801.77;111142;1205;99139;-63
2023/03/09 08:53:43;;;;;;;33.00;17.50;;;;;;;0.80;95.48;98805.63;111411;1208;99443;-63
2023/03/09 08:56:10;;;;;;;32.20;17.20;;;;;;;0.83;95.45;98809.56;111026;1206;139473;-62
2023/03/09 08:58:37;;;;;;;35.60;18.50;;;;;;;0.85;95.47;98808.60;111247;1208;100565;-62
2023/03/09 09:01:04;;;;;;;34.00;17.50;;;;;;;0.82;95.29;98810.80;110872;1206;139257;-61
2023/03/09 09:03:31;;;;;;;35.00;17.70;;;;;;;0.83;95.39;98815.55;111000;1206;99099;-62
2023/03/09 09:06:03;;;;;;;35.60;18.00;;;;;;;0.85;95.30;98817.76;111038;1209;98977;-62
2023/03/09 09:08:28;;;;;;;38.00;18.30;;;;;;;0.82;95.31;98824.71;110903;1206;112759;-62
2023/03/09 09:10:56;;;;;;;40.40;19.40;;;;;;;0.80;95.29;98828.46;110884;1206;99201;-62
2023/03/09 09:13:23;;;;;;;35.40;18.40;;;;;;;0.83;95.36;98831.55;110924;1209;141149;-62
2023/03/09 09:15:55;;;;;;;36.70;18.50;;;;;;;0.79;95.27;98830.09;111146;1222;99387;-62
2023/03/09 09:18:21;;;;;;;37.10;18.20;;;;;;;0.78;95.19;98833.63;111020;1208;139230;-63
2023/03/09 09:20:47;;;;;;;36.00;17.90;;;;;;;0.73;95.01;98839.09;111084;1208;98967;-62
2023/03/09 09:23:12;;;;;;;33.50;17.50;;;;;;;0.71;95.07;98849.67;111177;1209;98843;-62
2023/03/09 09:25:37;;;;;;;34.60;18.10;;;;;;;0.72;95.17;98858.64;110940;1208;140389;-62
2023/03/09 09:28:03;;;;;;;38.70;18.80;;;;;;;0.68;95.04;98854.38;110978;1208;99059;-63
2023/03/09 09:30:31;;;;;;;37.80;18.60;;;;;;;0.67;95.11;98856.52;111081;1206;140273;-62
2023/03/09 09:32:58;;;;;;;38.10;18.00;;;;;;;0.67;95.05;98860.55;111218;1209;108080;-63
2023/03/09 09:35:23;;;;;;;38.50;19.30;;;;;;;0.71;95.11;98856.20;111192;1209;99028;-63
2023/03/09 09:37:49;;;;;;;38.90;20.00;;;;;;;0.72;95.15;98858.10;110971;1208;139741;-63
2023/03/09 09:40:16;;;;;;;38.00;18.90;;;;;;;0.75;95.18;98864.15;111217;1208;100026;-63
2023/03/09 09:42:43;;;;;;;36.70;19.50;;;;;;;0.74;94.94;98864.73;111035;1209;139328;-63
2023/03/09 09:45:28;;;;;;;39.40;19.40;;;;;;;0.75;95.15;98873.30;111078;1208;98970;-63
2023/03/09 09:47:57;;;;;;;34.70;17.70;;;;;;;0.84;95.31;98878.79;111154;1208;99015;-64
2023/03/09 09:50:40;;;;;;;39.90;17.70;;;;;;;0.82;94.94;98887.14;111112;1206;139959;-63
2023/03/09 09:53:32;;;;;;;31.80;17.10;;;;;;;0.83;95.08;98894.33;111174;1208;100135;-63
2023/03/09 09:56:00;;;;;;;32.50;17.60;;;;;;;0.84;95.09;98899.39;110973;1205;140902;-64
2023/03/09 09:58:36;;;;;;;42.70;19.60;;;;;;;0.80;94.92;98895.81;111260;1208;99114;-64
2023/03/09 10:01:14;;;;;;;42.80;18.90;;;;;;;0.78;94.83;98900.08;110981;1209;140605;-64
2023/03/09 10:03:45;;;;;;;37.10;18.90;;;;;;;0.83;95.00;98896.95;111149;1206;112976;-64
2023/03/09 10:06:21;;;;;;;36.10;18.40;;;;;;;0.90;95.05;98900.05;110977;1208;140511;-64
2023/03/09 10:08:56;;;;;;;45.00;19.90;;;;;;;0.99;95.17;98902.58;111059;1221;108110;-64
2023/03/09 10:11:23;;;;;;;38.40;19.80;;;;;;;1.06;95.18;98904.63;111068;1208;99072;-64
2023/03/09 10:13:58;;;;;;;39.40;19.60;;;;;;;1.10;95.08;98907.48;110974;1208;141268;-65
2023/03/09 10:16:28;;;;;;;40.10;19.50;;;;;;;1.22;95.29;98913.08;111064;1206;112916;-65
2023/03/09 10:18:59;;;;;;;41.50;19.90;;;;;;;1.28;95.33;98918.15;111013;1205;139701;-64
2023/03/09 10:21:34;;;;;;;35.40;17.60;;;;;;;1.29;95.26;98920.42;111115;1205;107417;-65
2023/03/09 10:24:14;;;;;;;40.80;19.80;;;;;;;1.27;95.03;98931.73;111045;1206;98945;-64
2023/03/09 10:26:52;;;;;;;37.40;17.80;;;;;;;1.32;95.13;98940.54;111125;1208;99049;-64
2023/03/09 10:29:32;;;;;;;45.60;19.80;;;;;;;1.32;95.03;98948.46;111111;1221;112187;-64
2023/03/09 10:32:04;;;;;;;41.30;21.70;;;;;;;1.29;94.87;98953.66;110980;1209;140718;-64
2023/03/09 10:34:38;;;;;;;33.70;18.30;;;;;;;1.26;94.80;98959.90;111064;1206;107799;-64
2023/03/09 10:37:20;;;;;;;30.30;15.90;;;;;;;1.23;95.02;98962.48;111050;1209;139630;-65
2023/03/09 10:39:46;;;;;;;32.40;17.70;;;;;;;1.17;94.68;98972.87;111014;1206;99020;-64
2023/03/09 10:42:24;;;;;;;28.40;15.90;;;;;;;1.12;94.79;98972.33;111073;1206;140343;-65
2023/03/09 10:45:07;;;;;;;32.40;17.50;;;;;;;1.06;94.67;98971.83;111004;1210;100187;-65
2023/03/09 10:48:10;;;;;;;31.30;16.30;;;;;;;1.05;94.60;98978.20;111055;1208;109431;-64
2023/03/09 10:50:53;;;;;;;26.70;15.10;;;;;;;0.99;94.67;98992.11;111063;1205;98994;-64
2023/03/09 10:53:42;;;;;;;29.60;17.20;;;;;;;0.96;94.62;98998.35;111050;1209;100223;-64
2023/03/09 10:56:41;;;;;;;30.60;16.60;;;;;;;0.97;94.67;98995.69;110978;1208;140033;-63
2023/03/09 10:59:13;;;;;;;30.40;15.10;;;;;;;0.98;94.76;98999.33;111267;1208;100658;-64
2023/03/09 11:01:44;;;;;;;34.70;16.60;;;;;;;0.98;94.53;98997.93;110958;1208;138847;-64
2023/03/09 11:04:21;;;;;;;29.30;16.00;;;;;;;1.04;94.70;99003.04;111313;1206;98992;-64
2023/03/09 11:06:49;;;;;;;40.80;17.10;;;;;;;1.08;94.57;99002.55;111028;1206;139167;-63
2023/03/09 11:09:20;;;;;;;31.80;16.30;;;;;;;1.08;94.47;99000.44;111129;1206;113586;-64
2023/03/09 11:11:47;;;;;;;27.60;16.40;;;;;;;1.10;94.46;99008.99;111075;1208;99196;-64
2023/03/09 11:14:29;;;;;;;30.40;15.70;;;;;;;1.12;94.32;99017.91;111177;1205;139594;-63